createdAt,value
2017-11-30T00:00:08.329Z,0
2017-11-30T00:01:17.138Z,0
2017-11-30T00:02:25.673Z,0
2017-11-30T00:03:34.752Z,0
2017-11-30T00:04:43.829Z,0
2017-11-30T00:05:52.368Z,0
2017-11-30T00:07:01.235Z,0
2017-11-30T00:08:10.320Z,0
2017-11-30T00:09:19.128Z,0
2017-11-30T00:10:27.663Z,0
2017-11-30T00:11:36.749Z,0
2017-11-30T00:12:46.098Z,0
2017-11-30T00:13:54.902Z,0
2017-11-30T00:15:03.449Z,0
2017-11-30T00:16:11.977Z,0
2017-11-30T00:17:20.786Z,0
2017-11-30T00:18:30.138Z,0
2017-11-30T00:19:38.673Z,0
2017-11-30T00:20:47.761Z,0
2017-11-30T00:21:56.297Z,0
2017-11-30T00:23:06.105Z,0
2017-11-30T00:24:15.188Z,0
2017-11-30T00:25:24.541Z,0
2017-11-30T00:26:33.621Z,0
2017-11-30T00:27:42.698Z,0
2017-11-30T00:28:51.683Z,0
2017-11-30T00:30:00.766Z,0
2017-11-30T00:31:09.573Z,0
2017-11-30T00:32:18.671Z,0
2017-11-30T00:33:27.475Z,0
2017-11-30T00:34:36.279Z,0
2017-11-30T00:35:44.813Z,0
2017-11-30T00:36:53.348Z,0
2017-11-30T00:38:02.150Z,0
2017-11-30T00:39:10.957Z,0
2017-11-30T00:40:19.495Z,0
2017-11-30T00:41:28.300Z,0
2017-11-30T00:42:37.116Z,0
2017-11-30T00:43:45.924Z,0
2017-11-30T00:44:54.460Z,0
2017-11-30T00:46:03.273Z,0
2017-11-30T00:47:12.081Z,0
2017-11-30T00:48:20.894Z,0
2017-11-30T00:49:29.432Z,0
2017-11-30T00:50:37.963Z,0
2017-11-30T00:51:46.779Z,0
2017-11-30T00:52:55.576Z,0
2017-11-30T00:54:04.381Z,0
2017-11-30T00:55:13.182Z,0
2017-11-30T00:56:21.986Z,0
2017-11-30T00:57:30.793Z,0
2017-11-30T00:58:39.600Z,0
2017-11-30T00:59:48.135Z,0
2017-11-30T01:00:56.942Z,0
2017-11-30T01:02:05.761Z,0
2017-11-30T01:03:14.296Z,0
2017-11-30T01:04:23.099Z,0
2017-11-30T01:05:31.916Z,0
2017-11-30T01:06:40.712Z,0
2017-11-30T01:07:49.248Z,0
2017-11-30T01:08:58.328Z,0
2017-11-30T01:10:06.857Z,0
2017-11-30T01:11:15.392Z,0
2017-11-30T01:12:24.745Z,0
2017-11-30T01:13:33.555Z,0
2017-11-30T01:14:42.088Z,0
2017-11-30T01:15:50.895Z,0
2017-11-30T01:16:59.705Z,0
2017-11-30T01:18:08.780Z,0
2017-11-30T01:19:17.593Z,0
2017-11-30T01:20:26.662Z,0
2017-11-30T01:21:35.197Z,0
2017-11-30T01:22:44.005Z,0
2017-11-30T01:23:53.084Z,0
2017-11-30T01:25:02.164Z,0
2017-11-30T01:26:10.700Z,0
2017-11-30T01:27:19.234Z,0
2017-11-30T01:28:27.777Z,0
2017-11-30T01:29:36.578Z,0
2017-11-30T01:30:45.392Z,0
2017-11-30T01:31:54.198Z,0
2017-11-30T01:33:03.009Z,0
2017-11-30T01:34:11.540Z,0
2017-11-30T01:35:20.075Z,0
2017-11-30T01:36:28.879Z,0
2017-11-30T01:37:37.959Z,0
2017-11-30T01:38:46.769Z,0
2017-11-30T01:39:55.582Z,0
2017-11-30T01:41:04.107Z,0
2017-11-30T01:42:12.924Z,0
2017-11-30T01:43:21.736Z,0
2017-11-30T01:44:30.812Z,0
2017-11-30T01:45:39.904Z,0
2017-11-30T01:46:48.712Z,0
2017-11-30T01:47:57.246Z,0
2017-11-30T01:49:05.795Z,0
2017-11-30T01:50:14.332Z,0
2017-11-30T01:51:23.409Z,0
2017-11-30T01:52:31.942Z,0
2017-11-30T01:53:40.753Z,0
2017-11-30T01:54:49.289Z,0
2017-11-30T01:55:58.931Z,0
2017-11-30T01:57:07.463Z,0
2017-11-30T01:58:16.005Z,0
2017-11-30T01:59:25.097Z,0
2017-11-30T02:00:33.900Z,0
2017-11-30T02:01:42.710Z,0
2017-11-30T02:02:51.246Z,0
2017-11-30T02:04:00.053Z,0
2017-11-30T02:05:08.854Z,0
2017-11-30T02:06:17.662Z,0
2017-11-30T02:07:26.470Z,0
2017-11-30T02:08:35.275Z,0
2017-11-30T02:09:43.809Z,0
2017-11-30T02:10:52.612Z,0
2017-11-30T02:12:01.963Z,0
2017-11-30T02:13:10.772Z,0
2017-11-30T02:14:19.308Z,0
2017-11-30T02:15:28.396Z,0
2017-11-30T02:16:36.929Z,0
2017-11-30T02:17:45.736Z,0
2017-11-30T02:18:54.814Z,0
2017-11-30T02:20:03.347Z,0
2017-11-30T02:21:12.438Z,0
2017-11-30T02:22:21.244Z,0
2017-11-30T02:23:30.364Z,0
2017-11-30T02:24:38.907Z,0
2017-11-30T02:25:47.709Z,0
2017-11-30T02:26:56.516Z,0
2017-11-30T02:28:05.322Z,0
2017-11-30T02:29:13.856Z,0
2017-11-30T02:30:22.389Z,0
2017-11-30T02:31:31.464Z,0
2017-11-30T02:32:40.001Z,0
2017-11-30T02:33:49.086Z,0
2017-11-30T02:34:57.619Z,0
2017-11-30T02:36:06.425Z,0
2017-11-30T02:37:15.240Z,0
2017-11-30T02:38:24.054Z,0
2017-11-30T02:39:32.869Z,0
2017-11-30T02:40:41.406Z,0
2017-11-30T02:41:49.942Z,0
2017-11-30T02:42:58.760Z,0
2017-11-30T02:44:07.842Z,0
2017-11-30T02:45:16.659Z,0
2017-11-30T02:46:25.195Z,0
2017-11-30T02:47:33.728Z,0
2017-11-30T02:48:42.264Z,0
2017-11-30T02:49:51.080Z,0
2017-11-30T02:50:59.612Z,0
2017-11-30T02:52:08.422Z,0
2017-11-30T02:53:17.242Z,0
2017-11-30T02:54:26.588Z,0
2017-11-30T02:55:35.395Z,0
2017-11-30T02:56:44.477Z,0
2017-11-30T02:57:53.289Z,0
2017-11-30T02:59:02.093Z,0
2017-11-30T03:00:10.911Z,0
2017-11-30T03:01:19.996Z,0
2017-11-30T03:02:28.802Z,0
2017-11-30T03:03:37.340Z,0
2017-11-30T03:04:46.146Z,0
2017-11-30T03:05:54.693Z,0
2017-11-30T03:07:03.226Z,0
2017-11-30T03:08:12.030Z,0
2017-11-30T03:09:21.109Z,0
2017-11-30T03:10:29.643Z,0
2017-11-30T03:11:38.178Z,0
2017-11-30T03:12:46.990Z,0
2017-11-30T03:13:56.076Z,0
2017-11-30T03:15:04.880Z,0
2017-11-30T03:16:13.691Z,0
2017-11-30T03:17:22.219Z,0
2017-11-30T03:18:30.756Z,0
2017-11-30T03:19:39.562Z,0
2017-11-30T03:20:48.644Z,0
2017-11-30T03:21:57.174Z,0
2017-11-30T03:23:06.626Z,0
2017-11-30T03:24:15.990Z,0
2017-11-30T03:25:24.800Z,0
2017-11-30T03:26:33.333Z,0
2017-11-30T03:27:42.141Z,0
2017-11-30T03:28:50.945Z,0
2017-11-30T03:29:59.767Z,0
2017-11-30T03:31:08.901Z,0
2017-11-30T03:32:17.434Z,0
2017-11-30T03:33:25.978Z,0
2017-11-30T03:34:34.783Z,0
2017-11-30T03:35:43.318Z,0
2017-11-30T03:36:52.125Z,0
2017-11-30T03:38:00.659Z,0
2017-11-30T03:39:09.195Z,0
2017-11-30T03:40:17.729Z,0
2017-11-30T03:41:26.536Z,0
2017-11-30T03:42:35.617Z,0
2017-11-30T03:43:44.422Z,0
2017-11-30T03:44:53.227Z,0
2017-11-30T03:46:01.762Z,0
2017-11-30T03:47:10.611Z,0
2017-11-30T03:48:19.425Z,0
2017-11-30T03:49:27.966Z,0
2017-11-30T03:50:36.496Z,0
2017-11-30T03:51:45.308Z,0
2017-11-30T03:52:54.115Z,0
2017-11-30T03:54:02.649Z,0
2017-11-30T03:55:11.189Z,0
2017-11-30T03:56:19.721Z,0
2017-11-30T03:57:28.527Z,0
2017-11-30T03:58:37.330Z,0
2017-11-30T03:59:45.866Z,0
2017-11-30T04:00:54.943Z,0
2017-11-30T04:02:03.480Z,0
2017-11-30T04:03:12.558Z,0
2017-11-30T04:04:21.369Z,0
2017-11-30T04:05:30.448Z,0
2017-11-30T04:06:38.985Z,0
2017-11-30T04:07:47.790Z,0
2017-11-30T04:08:56.328Z,0
2017-11-30T04:10:04.865Z,0
2017-11-30T04:11:13.398Z,0
2017-11-30T04:12:21.935Z,0
2017-11-30T04:13:30.469Z,0
2017-11-30T04:14:39.277Z,0
2017-11-30T04:15:47.811Z,0
2017-11-30T04:16:56.347Z,0
2017-11-30T04:18:04.881Z,0
2017-11-30T04:19:13.687Z,0
2017-11-30T04:20:22.495Z,0
2017-11-30T04:21:31.308Z,0
2017-11-30T04:22:40.114Z,0
2017-11-30T04:23:48.648Z,0
2017-11-30T04:24:57.456Z,0
2017-11-30T04:26:06.263Z,0
2017-11-30T04:27:15.625Z,0
2017-11-30T04:28:24.435Z,0
2017-11-30T04:29:33.243Z,0
2017-11-30T04:30:42.316Z,0
2017-11-30T04:31:50.851Z,0
2017-11-30T04:32:59.392Z,0
2017-11-30T04:34:08.200Z,0
2017-11-30T04:35:17.277Z,0
2017-11-30T04:36:25.813Z,0
2017-11-30T04:37:34.619Z,0
2017-11-30T04:38:43.185Z,0
2017-11-30T04:39:51.721Z,0
2017-11-30T04:41:00.254Z,0
2017-11-30T04:42:09.059Z,0
2017-11-30T04:43:18.143Z,0
2017-11-30T04:44:26.678Z,0
2017-11-30T04:45:35.484Z,0
2017-11-30T04:46:44.313Z,0
2017-11-30T04:47:53.126Z,0
2017-11-30T04:49:01.667Z,0
2017-11-30T04:50:10.204Z,0
2017-11-30T04:51:19.002Z,0
2017-11-30T04:52:27.812Z,0
2017-11-30T04:53:37.162Z,0
2017-11-30T04:54:45.710Z,0
2017-11-30T04:55:55.074Z,0
2017-11-30T04:57:03.882Z,0
2017-11-30T04:58:12.416Z,0
2017-11-30T04:59:21.493Z,0
2017-11-30T05:00:30.311Z,0
2017-11-30T05:01:39.399Z,0
2017-11-30T05:02:49.031Z,0
2017-11-30T05:03:58.116Z,0
2017-11-30T05:05:06.927Z,0
2017-11-30T05:06:16.012Z,0
2017-11-30T05:07:24.831Z,0
2017-11-30T05:08:33.909Z,0
2017-11-30T05:09:42.715Z,0
2017-11-30T05:10:51.252Z,0
2017-11-30T05:12:00.061Z,0
2017-11-30T05:13:08.597Z,0
2017-11-30T05:14:17.411Z,0
2017-11-30T05:15:26.216Z,0
2017-11-30T05:16:34.808Z,0
2017-11-30T05:17:43.613Z,0
2017-11-30T05:18:52.421Z,0
2017-11-30T05:20:00.956Z,0
2017-11-30T05:21:10.036Z,0
2017-11-30T05:22:19.113Z,0
2017-11-30T05:23:27.918Z,0
2017-11-30T05:24:36.723Z,0
2017-11-30T05:25:45.570Z,0
2017-11-30T05:26:54.638Z,0
2017-11-30T05:28:03.713Z,0
2017-11-30T05:29:12.522Z,0
2017-11-30T05:30:21.330Z,0
2017-11-30T05:31:29.867Z,0
2017-11-30T05:32:38.674Z,0
2017-11-30T05:33:47.478Z,0
2017-11-30T05:34:56.565Z,0
2017-11-30T05:36:05.383Z,0
2017-11-30T05:37:14.460Z,0
2017-11-30T05:38:23.268Z,0
2017-11-30T05:39:32.075Z,0
2017-11-30T05:40:40.606Z,0
2017-11-30T05:41:49.143Z,0
2017-11-30T05:42:58.221Z,0
2017-11-30T05:44:06.757Z,0
2017-11-30T05:45:15.833Z,0
2017-11-30T05:46:24.637Z,0
2017-11-30T05:47:33.172Z,0
2017-11-30T05:48:41.705Z,0
2017-11-30T05:49:50.519Z,0
2017-11-30T05:50:59.328Z,0
2017-11-30T05:52:08.157Z,0
2017-11-30T05:53:16.689Z,0
2017-11-30T05:54:25.506Z,0
2017-11-30T05:55:34.858Z,0
2017-11-30T05:56:43.389Z,0
2017-11-30T05:57:52.199Z,0
2017-11-30T05:59:01.285Z,0
2017-11-30T06:00:10.090Z,0
2017-11-30T06:01:18.897Z,0
2017-11-30T06:02:27.980Z,0
2017-11-30T06:03:36.516Z,0
2017-11-30T06:04:45.321Z,0
2017-11-30T06:05:54.401Z,0
2017-11-30T06:07:02.946Z,0
2017-11-30T06:08:11.754Z,0
2017-11-30T06:09:20.557Z,0
2017-11-30T06:10:29.095Z,0
2017-11-30T06:11:37.900Z,0
2017-11-30T06:12:46.433Z,0
2017-11-30T06:13:55.236Z,0
2017-11-30T06:15:04.314Z,0
2017-11-30T06:16:13.126Z,0
2017-11-30T06:17:24.124Z,0
2017-11-30T06:18:33.358Z,0
2017-11-30T06:19:42.168Z,0
2017-11-30T06:20:50.709Z,0
2017-11-30T06:21:59.783Z,0
2017-11-30T06:23:08.597Z,0
2017-11-30T06:24:17.134Z,0
2017-11-30T06:25:25.668Z,0
2017-11-30T06:26:34.205Z,0
2017-11-30T06:27:43.285Z,0
2017-11-30T06:28:51.821Z,0
2017-11-30T06:30:00.626Z,0
2017-11-30T06:31:09.434Z,0
2017-11-30T06:32:17.968Z,0
2017-11-30T06:33:26.503Z,0
2017-11-30T06:34:35.040Z,0
2017-11-30T06:35:43.844Z,0
2017-11-30T06:36:52.649Z,0
2017-11-30T06:38:01.459Z,0
2017-11-30T06:39:09.990Z,0
2017-11-30T06:40:18.794Z,0
2017-11-30T06:41:27.329Z,0
2017-11-30T06:42:36.136Z,0
2017-11-30T06:43:44.671Z,4
2017-11-30T06:44:53.755Z,4
2017-11-30T06:46:02.842Z,0
2017-11-30T06:47:11.376Z,4
2017-11-30T06:48:20.410Z,4
2017-11-30T06:49:28.943Z,4
2017-11-30T06:50:37.752Z,8
2017-11-30T06:51:46.285Z,4
2017-11-30T06:52:55.364Z,4
2017-11-30T06:54:04.172Z,8
2017-11-30T06:55:13.256Z,12
2017-11-30T06:56:22.076Z,12
2017-11-30T06:57:30.889Z,12
2017-11-30T06:58:39.694Z,16
2017-11-30T06:59:48.225Z,16
2017-11-30T07:00:57.033Z,20
2017-11-30T07:02:05.841Z,24
2017-11-30T07:03:14.383Z,28
2017-11-30T07:04:23.522Z,32
2017-11-30T07:05:32.605Z,36
2017-11-30T07:06:41.688Z,44
2017-11-30T07:07:50.527Z,44
2017-11-30T07:08:59.323Z,44
2017-11-30T07:10:08.137Z,48
2017-11-30T07:11:16.669Z,60
2017-11-30T07:12:25.205Z,76
2017-11-30T07:13:33.742Z,88
2017-11-30T07:14:42.549Z,100
2017-11-30T07:15:51.083Z,104
2017-11-30T07:17:00.160Z,120
2017-11-30T07:18:08.697Z,140
2017-11-30T07:19:17.501Z,136
2017-11-30T07:20:26.578Z,136
2017-11-30T07:21:35.115Z,156
2017-11-30T07:22:43.649Z,184
2017-11-30T07:23:52.192Z,236
2017-11-30T07:25:01.163Z,256
2017-11-30T07:26:09.983Z,272
2017-11-30T07:27:19.172Z,272
2017-11-30T07:28:27.992Z,292
2017-11-30T07:29:37.078Z,296
2017-11-30T07:30:45.660Z,316
2017-11-30T07:31:54.200Z,344
2017-11-30T07:33:03.284Z,356
2017-11-30T07:34:12.093Z,384
2017-11-30T07:35:21.177Z,416
2017-11-30T07:36:29.982Z,448
2017-11-30T07:37:38.787Z,500
2017-11-30T07:38:47.602Z,456
2017-11-30T07:39:56.411Z,480
2017-11-30T07:41:04.944Z,472
2017-11-30T07:42:13.479Z,508
2017-11-30T07:43:22.343Z,644
2017-11-30T07:44:31.418Z,752
2017-11-30T07:45:40.622Z,748
2017-11-30T07:46:49.455Z,748
2017-11-30T07:47:58.266Z,844
2017-11-30T07:49:06.798Z,856
2017-11-30T07:50:15.345Z,952
2017-11-30T07:51:24.161Z,1056
2017-11-30T07:52:46.993Z,1156
2017-11-30T07:53:56.969Z,1200
2017-11-30T07:55:05.513Z,1188
2017-11-30T07:56:14.540Z,1252
2017-11-30T07:57:23.361Z,1252
2017-11-30T07:58:31.894Z,1280
2017-11-30T07:59:40.498Z,1300
2017-11-30T08:00:49.038Z,1300
2017-11-30T08:01:57.573Z,1308
2017-11-30T08:03:06.384Z,1300
2017-11-30T08:04:15.190Z,1368
2017-11-30T08:05:24.546Z,1444
2017-11-30T08:06:33.356Z,1560
2017-11-30T08:07:41.894Z,1612
2017-11-30T08:08:50.431Z,1612
2017-11-30T08:09:59.532Z,1632
2017-11-30T08:11:08.633Z,1668
2017-11-30T08:12:17.432Z,1764
2017-11-30T08:13:25.968Z,1820
2017-11-30T08:14:34.784Z,1900
2017-11-30T08:15:43.881Z,2036
2017-11-30T08:16:52.427Z,2076
2017-11-30T08:18:01.238Z,2128
2017-11-30T08:19:10.040Z,2152
2017-11-30T08:20:19.010Z,2172
2017-11-30T08:21:28.391Z,2208
2017-11-30T08:22:37.280Z,2180
2017-11-30T08:23:45.821Z,2044
2017-11-30T08:24:54.360Z,1908
2017-11-30T08:26:03.224Z,1856
2017-11-30T08:27:11.760Z,2004
2017-11-30T08:28:20.334Z,2100
2017-11-30T08:29:29.691Z,2220
2017-11-30T08:30:38.293Z,2308
2017-11-30T08:31:47.428Z,2376
2017-11-30T08:32:55.978Z,2500
2017-11-30T08:34:04.512Z,2536
2017-11-30T08:35:13.324Z,2440
2017-11-30T08:36:22.412Z,2124
2017-11-30T08:37:31.788Z,1860
2017-11-30T08:38:40.643Z,1680
2017-11-30T08:39:49.260Z,1988
2017-11-30T08:40:58.115Z,2032
2017-11-30T08:42:06.940Z,2236
2017-11-30T08:43:16.319Z,2156
2017-11-30T08:44:24.984Z,1800
2017-11-30T08:45:33.795Z,2128
2017-11-30T08:46:42.878Z,2288
2017-11-30T08:47:51.691Z,2332
2017-11-30T08:49:00.228Z,2080
2017-11-30T08:50:09.036Z,1988
2017-11-30T08:51:17.844Z,1832
2017-11-30T08:52:27.194Z,1812
2017-11-30T08:53:35.724Z,2008
2017-11-30T08:54:44.260Z,1948
2017-11-30T08:55:52.802Z,1636
2017-11-30T08:57:01.971Z,1684
2017-11-30T08:58:10.786Z,1620
2017-11-30T08:59:19.639Z,1560
2017-11-30T09:00:28.287Z,1668
2017-11-30T09:01:36.851Z,1524
2017-11-30T09:02:45.388Z,1520
2017-11-30T09:03:53.926Z,1464
2017-11-30T09:05:03.010Z,1340
2017-11-30T09:06:11.828Z,1624
2017-11-30T09:07:20.690Z,1920
2017-11-30T09:08:29.779Z,1984
2017-11-30T09:09:38.318Z,1912
2017-11-30T09:10:47.141Z,2124
2017-11-30T09:11:56.227Z,2456
2017-11-30T09:13:05.037Z,2236
2017-11-30T09:14:13.869Z,2404
2017-11-30T09:15:22.679Z,2140
2017-11-30T09:16:31.216Z,1896
2017-11-30T09:17:40.311Z,2064
2017-11-30T09:18:48.843Z,2488
2017-11-30T09:19:57.946Z,2740
2017-11-30T09:21:06.749Z,2908
2017-11-30T09:22:15.295Z,3124
2017-11-30T09:23:26.746Z,3240
2017-11-30T09:24:35.828Z,2996
2017-11-30T09:25:44.668Z,3212
2017-11-30T09:26:54.027Z,3264
2017-11-30T09:28:02.844Z,3324
2017-11-30T09:29:11.387Z,3448
2017-11-30T09:30:20.226Z,3532
2017-11-30T09:31:29.037Z,3640
2017-11-30T09:32:38.131Z,3468
2017-11-30T09:33:46.676Z,3700
2017-11-30T09:34:55.798Z,3748
2017-11-30T09:36:04.878Z,3832
2017-11-30T09:37:13.418Z,4060
2017-11-30T09:38:22.236Z,4176
2017-11-30T09:39:31.045Z,4172
2017-11-30T09:40:39.856Z,4224
2017-11-30T09:41:49.207Z,4500
2017-11-30T09:42:58.022Z,4548
2017-11-30T09:44:07.106Z,4648
2017-11-30T09:45:15.926Z,4908
2017-11-30T09:46:24.472Z,4776
2017-11-30T09:47:33.919Z,5220
2017-11-30T09:48:42.729Z,5276
2017-11-30T09:49:51.555Z,5208
2017-11-30T09:51:00.482Z,4796
2017-11-30T09:52:11.083Z,4892
2017-11-30T09:53:20.917Z,4800
2017-11-30T09:54:29.738Z,4716
2017-11-30T09:55:38.274Z,4672
2017-11-30T09:56:46.825Z,4468
2017-11-30T09:57:55.367Z,4492
2017-11-30T09:59:03.923Z,4560
2017-11-30T10:00:12.462Z,4268
2017-11-30T10:01:21.619Z,4064
2017-11-30T10:02:30.157Z,3724
2017-11-30T10:03:39.788Z,3160
2017-11-30T10:04:48.324Z,2568
2017-11-30T10:05:57.405Z,2548
2017-11-30T10:07:06.485Z,2648
2017-11-30T10:08:15.299Z,2564
2017-11-30T10:09:24.138Z,2424
2017-11-30T10:10:33.898Z,2432
2017-11-30T10:11:42.711Z,2188
2017-11-30T10:12:51.785Z,2012
2017-11-30T10:14:00.662Z,2352
2017-11-30T10:15:10.073Z,2336
2017-11-30T10:16:18.943Z,2104
2017-11-30T10:17:28.091Z,1936
2017-11-30T10:18:37.174Z,1728
2017-11-30T10:19:45.999Z,2100
2017-11-30T10:20:54.538Z,2320
2017-11-30T10:22:03.656Z,2500
2017-11-30T10:23:12.473Z,2392
2017-11-30T10:24:21.281Z,2612
2017-11-30T10:25:30.096Z,2968
2017-11-30T10:26:38.634Z,3428
2017-11-30T10:27:47.437Z,3388
2017-11-30T10:28:55.979Z,2908
2017-11-30T10:30:04.789Z,3192
2017-11-30T10:31:13.597Z,3532
2017-11-30T10:32:22.678Z,3816
2017-11-30T10:33:31.495Z,3492
2017-11-30T10:34:40.043Z,3424
2017-11-30T10:35:48.580Z,3260
2017-11-30T10:36:57.402Z,3232
2017-11-30T10:38:06.216Z,3408
2017-11-30T10:39:14.750Z,3276
2017-11-30T10:40:23.288Z,3176
2017-11-30T10:41:32.096Z,3060
2017-11-30T10:42:40.802Z,2936
2017-11-30T10:43:49.882Z,2952
2017-11-30T10:44:58.427Z,2944
2017-11-30T10:46:06.965Z,2992
2017-11-30T10:47:15.777Z,3000
2017-11-30T10:48:24.363Z,2376
2017-11-30T10:49:33.179Z,2832
2017-11-30T10:50:41.720Z,2512
2017-11-30T10:51:50.528Z,2492
2017-11-30T10:52:59.633Z,2320
2017-11-30T10:54:08.172Z,2160
2017-11-30T10:55:16.986Z,1920
2017-11-30T10:56:26.084Z,2044
2017-11-30T10:57:34.624Z,2260
2017-11-30T10:58:43.160Z,2012
2017-11-30T10:59:51.967Z,1716
2017-11-30T11:01:01.325Z,1724
2017-11-30T11:02:09.870Z,1688
2017-11-30T11:03:18.955Z,1712
2017-11-30T11:04:27.493Z,2040
2017-11-30T11:05:36.303Z,2628
2017-11-30T11:06:44.843Z,3236
2017-11-30T11:07:53.383Z,3260
2017-11-30T11:09:02.193Z,3196
2017-11-30T11:10:11.005Z,2900
2017-11-30T11:11:19.819Z,2388
2017-11-30T11:12:28.362Z,1892
2017-11-30T11:13:37.447Z,1952
2017-11-30T11:14:46.260Z,2160
2017-11-30T11:15:55.078Z,2104
2017-11-30T11:17:03.897Z,2432
2017-11-30T11:18:12.712Z,2768
2017-11-30T11:19:21.258Z,3028
2017-11-30T11:20:29.798Z,3272
2017-11-30T11:21:38.339Z,3252
2017-11-30T11:22:47.426Z,3408
2017-11-30T11:23:55.960Z,3760
2017-11-30T11:25:04.499Z,3160
2017-11-30T11:26:13.625Z,2860
2017-11-30T11:27:22.435Z,2956
2017-11-30T11:28:31.248Z,3252
2017-11-30T11:29:40.057Z,3652
2017-11-30T11:30:48.591Z,3740
2017-11-30T11:31:57.682Z,3532
2017-11-30T11:33:06.494Z,3532
2017-11-30T11:34:15.299Z,3200
2017-11-30T11:35:24.105Z,3564
2017-11-30T11:36:32.646Z,3804
2017-11-30T11:37:41.184Z,3288
2017-11-30T11:38:50.266Z,3040
2017-11-30T11:39:58.820Z,2632
2017-11-30T11:41:08.180Z,2604
2017-11-30T11:42:17.027Z,2464
2017-11-30T11:43:25.834Z,2304
2017-11-30T11:44:34.684Z,2092
2017-11-30T11:45:43.234Z,2152
2017-11-30T11:46:52.332Z,2608
2017-11-30T11:48:01.147Z,2724
2017-11-30T11:49:10.279Z,2404
2017-11-30T11:50:19.464Z,2372
2017-11-30T11:51:29.230Z,2540
2017-11-30T11:52:38.135Z,2236
2017-11-30T11:53:47.225Z,2032
2017-11-30T11:54:55.763Z,1864
2017-11-30T11:56:04.881Z,1852
2017-11-30T11:57:13.700Z,2036
2017-11-30T11:58:22.798Z,2684
2017-11-30T11:59:31.616Z,2296
2017-11-30T12:00:40.702Z,1912
2017-11-30T12:01:49.521Z,2324
2017-11-30T12:02:58.071Z,2208
2017-11-30T12:04:07.151Z,2580
2017-11-30T12:05:16.238Z,3236
2017-11-30T12:06:25.049Z,3440
2017-11-30T12:07:34.132Z,3188
2017-11-30T12:08:42.947Z,3172
2017-11-30T12:09:51.755Z,3004
2017-11-30T12:11:00.566Z,3596
2017-11-30T12:12:09.382Z,4352
2017-11-30T12:13:18.242Z,4012
2017-11-30T12:14:27.353Z,3188
2017-11-30T12:15:35.892Z,3356
2017-11-30T12:16:44.973Z,3572
2017-11-30T12:17:53.780Z,3500
2017-11-30T12:19:02.589Z,3572
2017-11-30T12:20:11.407Z,3472
2017-11-30T12:21:20.216Z,3052
2017-11-30T12:22:29.022Z,2852
2017-11-30T12:23:38.108Z,3060
2017-11-30T12:24:46.642Z,3232
2017-11-30T12:25:55.728Z,3328
2017-11-30T12:27:04.267Z,3284
2017-11-30T12:28:13.080Z,3072
2017-11-30T12:29:22.060Z,2888
2017-11-30T12:30:30.598Z,2984
2017-11-30T12:31:39.962Z,3108
2017-11-30T12:32:48.770Z,3208
2017-11-30T12:33:57.590Z,3012
2017-11-30T12:35:06.693Z,2912
2017-11-30T12:36:15.509Z,3036
2017-11-30T12:37:24.315Z,3244
2017-11-30T12:38:33.398Z,3184
2017-11-30T12:39:42.219Z,2924
2017-11-30T12:40:50.744Z,2676
2017-11-30T12:41:59.284Z,2936
2017-11-30T12:43:08.376Z,3328
2017-11-30T12:44:17.189Z,3520
2017-11-30T12:45:25.728Z,3536
2017-11-30T12:46:34.535Z,3544
2017-11-30T12:47:43.354Z,3500
2017-11-30T12:48:52.178Z,3448
2017-11-30T12:50:01.257Z,3420
2017-11-30T12:51:09.798Z,3384
2017-11-30T12:52:18.618Z,3308
2017-11-30T12:53:27.156Z,3232
2017-11-30T12:54:35.967Z,3352
2017-11-30T12:55:44.503Z,3412
2017-11-30T12:56:53.896Z,3468
2017-11-30T12:58:02.710Z,3536
2017-11-30T12:59:11.779Z,3540
2017-11-30T13:00:20.319Z,3464
2017-11-30T13:01:29.155Z,3292
2017-11-30T13:02:38.253Z,3148
2017-11-30T13:03:47.054Z,3088
2017-11-30T13:04:56.123Z,2992
2017-11-30T13:06:05.198Z,2652
2017-11-30T13:07:14.535Z,2456
2017-11-30T13:08:23.071Z,2396
2017-11-30T13:09:31.874Z,2204
2017-11-30T13:10:40.431Z,2212
2017-11-30T13:11:48.962Z,2140
2017-11-30T13:12:58.033Z,2212
2017-11-30T13:14:06.570Z,2204
2017-11-30T13:15:15.374Z,2260
2017-11-30T13:16:24.180Z,2224
2017-11-30T13:17:33.518Z,2056
2017-11-30T13:18:42.055Z,2040
2017-11-30T13:19:50.595Z,1964
2017-11-30T13:20:59.281Z,2104
2017-11-30T13:22:07.818Z,2232
2017-11-30T13:23:17.182Z,2168
2017-11-30T13:24:25.965Z,2004
2017-11-30T13:25:34.504Z,2280
2017-11-30T13:26:43.305Z,2672
2017-11-30T13:27:52.113Z,2976
2017-11-30T13:29:00.653Z,3212
2017-11-30T13:30:09.725Z,3312
2017-11-30T13:31:18.528Z,3240
2017-11-30T13:32:27.069Z,3220
2017-11-30T13:33:36.954Z,3216
2017-11-30T13:34:46.027Z,3164
2017-11-30T13:35:54.833Z,3084
2017-11-30T13:37:03.907Z,2828
2017-11-30T13:38:12.711Z,2608
2017-11-30T13:39:21.526Z,2664
2017-11-30T13:40:30.333Z,2816
2017-11-30T13:41:39.134Z,2776
2017-11-30T13:42:47.935Z,2540
2017-11-30T13:43:56.742Z,2364
2017-11-30T13:45:05.279Z,2632
2017-11-30T13:46:13.816Z,2788
2017-11-30T13:47:22.624Z,2664
2017-11-30T13:48:31.432Z,2552
2017-11-30T13:49:40.234Z,2348
2017-11-30T13:50:49.306Z,2112
2017-11-30T13:51:58.111Z,1852
2017-11-30T13:53:06.954Z,1784
2017-11-30T13:54:15.763Z,1812
2017-11-30T13:55:24.298Z,1672
2017-11-30T13:56:33.103Z,1572
2017-11-30T13:57:41.909Z,1468
2017-11-30T13:58:50.986Z,1384
2017-11-30T13:59:59.793Z,1468
2017-11-30T14:01:08.331Z,1620
2017-11-30T14:02:16.867Z,1608
2017-11-30T14:03:25.941Z,1488
2017-11-30T14:04:35.014Z,1300
2017-11-30T14:05:43.821Z,1076
2017-11-30T14:06:52.625Z,1120
2017-11-30T14:08:01.441Z,1384
2017-11-30T14:09:10.247Z,1564
2017-11-30T14:10:19.057Z,1672
2017-11-30T14:11:27.860Z,1548
2017-11-30T14:12:36.935Z,1316
2017-11-30T14:13:45.740Z,1236
2017-11-30T14:14:54.278Z,1204
2017-11-30T14:16:03.352Z,1136
2017-11-30T14:17:12.160Z,1040
2017-11-30T14:18:20.695Z,912
2017-11-30T14:19:29.504Z,792
2017-11-30T14:20:38.306Z,688
2017-11-30T14:21:47.116Z,652
2017-11-30T14:22:55.922Z,672
2017-11-30T14:24:04.734Z,672
2017-11-30T14:25:13.805Z,664
2017-11-30T14:26:22.879Z,748
2017-11-30T14:27:31.680Z,800
2017-11-30T14:28:40.215Z,800
2017-11-30T14:29:48.756Z,792
2017-11-30T14:30:57.563Z,804
2017-11-30T14:32:06.105Z,824
2017-11-30T14:33:15.177Z,904
2017-11-30T14:34:23.984Z,948
2017-11-30T14:35:33.332Z,956
2017-11-30T14:36:42.135Z,952
2017-11-30T14:37:50.674Z,956
2017-11-30T14:38:59.213Z,960
2017-11-30T14:40:08.289Z,928
2017-11-30T14:41:17.364Z,892
2017-11-30T14:42:26.453Z,864
2017-11-30T14:43:35.277Z,808
2017-11-30T14:44:44.082Z,792
2017-11-30T14:45:53.154Z,800
2017-11-30T14:47:01.693Z,788
2017-11-30T14:48:10.497Z,728
2017-11-30T14:49:19.604Z,652
2017-11-30T14:50:28.145Z,628
2017-11-30T14:51:36.961Z,588
2017-11-30T14:52:45.495Z,560
2017-11-30T14:53:54.302Z,556
2017-11-30T14:55:03.128Z,548
2017-11-30T14:56:11.664Z,536
2017-11-30T14:57:20.807Z,508
2017-11-30T14:58:29.611Z,476
2017-11-30T14:59:38.518Z,456
2017-11-30T15:00:47.056Z,468
2017-11-30T15:01:57.374Z,472
2017-11-30T15:03:06.873Z,456
2017-11-30T15:04:15.680Z,444
2017-11-30T15:05:24.548Z,412
2017-11-30T15:07:03.323Z,368
2017-11-30T15:08:14.118Z,324
2017-11-30T15:09:23.065Z,268
2017-11-30T15:10:34.594Z,228
2017-11-30T15:11:43.339Z,220
2017-11-30T15:12:52.021Z,216
2017-11-30T15:14:00.898Z,204
2017-11-30T15:15:09.520Z,188
2017-11-30T15:16:19.401Z,176
2017-11-30T15:17:28.214Z,172
2017-11-30T15:18:37.171Z,164
2017-11-30T15:19:46.051Z,152
2017-11-30T15:20:54.814Z,144
2017-11-30T15:22:03.405Z,144
2017-11-30T15:23:12.968Z,140
2017-11-30T15:24:21.871Z,140
2017-11-30T15:25:31.288Z,132
2017-11-30T15:26:40.338Z,132
2017-11-30T15:27:48.990Z,132
2017-11-30T15:28:57.605Z,132
2017-11-30T15:30:06.543Z,124
2017-11-30T15:31:15.228Z,120
2017-11-30T15:32:23.861Z,116
2017-11-30T15:33:34.755Z,108
2017-11-30T15:34:45.410Z,104
2017-11-30T15:35:54.130Z,100
2017-11-30T15:37:03.227Z,96
2017-11-30T15:38:12.158Z,92
2017-11-30T15:39:21.593Z,92
2017-11-30T15:40:31.741Z,88
2017-11-30T15:41:40.697Z,88
2017-11-30T15:42:49.914Z,84
2017-11-30T15:43:58.506Z,84
2017-11-30T15:45:09.834Z,80
2017-11-30T15:46:19.397Z,80
2017-11-30T15:47:28.359Z,80
2017-11-30T15:48:37.576Z,76
2017-11-30T15:49:46.462Z,76
2017-11-30T15:50:55.141Z,76
2017-11-30T15:52:04.283Z,80
2017-11-30T15:53:13.709Z,76
2017-11-30T15:54:22.559Z,76
2017-11-30T15:55:31.131Z,76
2017-11-30T15:56:40.013Z,72
2017-11-30T15:57:49.114Z,76
2017-11-30T15:59:00.292Z,76
2017-11-30T16:00:09.458Z,76
2017-11-30T16:01:19.227Z,76
2017-11-30T16:02:28.562Z,76
2017-11-30T16:03:38.327Z,76
2017-11-30T16:04:47.005Z,76